Time;durP1;ratioP1;P1;durP2;ratioP2;P2;SDS_P1;SDS_P2;PMS_P1;PMS_P2;Temp;Humidity;BMP_temperature;BMP_pressure;BME280_temperature;BME280_humidity;BME280_pressure;Samples;Min_cycle;Max_cycle;Signal;HPM_P1;HPM_P2
2024/01/26 00:01:28;;;;;;;17.73;7.03;;;;;;;;;;5098225;28;20983;-66
2024/01/26 00:03:57;;;;;;;24.23;7.90;;;;;;;;;;5095694;28;20443;-65
2024/01/26 00:06:25;;;;;;;22.83;6.90;;;;;;;;;;5095334;28;20482;-66
2024/01/26 00:08:51;;;;;;;19.50;7.50;;;;;;;;;;5086682;28;20476;-65
2024/01/26 00:11:18;;;;;;;20.70;8.00;;;;;;;;;;5093355;28;20476;-65
2024/01/26 00:13:44;;;;;;;22.23;7.33;;;;;;;;;;5089777;28;20803;-66
2024/01/26 00:16:11;;;;;;;21.37;7.33;;;;;;;;;;5108159;28;20518;-65
2024/01/26 00:18:37;;;;;;;18.77;6.27;;;;;;;;;;5097389;28;20498;-65
2024/01/26 00:21:04;;;;;;;22.70;6.93;;;;;;;;;;5097371;28;20479;-65
2024/01/26 00:23:32;;;;;;;24.53;6.70;;;;;;;;;;5098046;28;20453;-65
2024/01/26 00:25:58;;;;;;;13.50;6.30;;;;;;;;;;5095434;28;20491;-65
2024/01/26 00:28:24;;;;;;;14.87;6.10;;;;;;;;;;5090205;28;20447;-65
2024/01/26 00:30:51;;;;;;;20.93;7.90;;;;;;;;;;5094912;28;20475;-64
2024/01/26 00:33:17;;;;;;;10.63;5.70;;;;;;;;;;5094076;28;21033;-65
2024/01/26 00:35:44;;;;;;;18.57;6.97;;;;;;;;;;5092447;28;20506;-65
2024/01/26 00:38:10;;;;;;;16.80;5.97;;;;;;;;;;5100947;28;20541;-65
2024/01/26 00:40:38;;;;;;;13.90;7.30;;;;;;;;;;5089289;28;20490;-65
2024/01/26 00:43:04;;;;;;;19.93;7.90;;;;;;;;;;5093337;28;20487;-64
2024/01/26 00:45:31;;;;;;;18.33;6.80;;;;;;;;;;5097382;28;20434;-65
2024/01/26 00:47:57;;;;;;;19.07;6.83;;;;;;;;;;5093871;28;20538;-65
2024/01/26 00:50:24;;;;;;;13.00;6.43;;;;;;;;;;5090362;28;20501;-65
2024/01/26 00:52:51;;;;;;;17.63;8.23;;;;;;;;;;5094865;28;20469;-66
2024/01/26 00:55:17;;;;;;;24.47;8.57;;;;;;;;;;5094854;28;20535;-66
2024/01/26 00:57:45;;;;;;;18.73;7.27;;;;;;;;;;5088486;28;20455;-65
2024/01/26 01:00:12;;;;;;;13.77;8.13;;;;;;;;;;5092766;28;20451;-65
2024/01/26 01:02:39;;;;;;;13.40;7.90;;;;;;;;;;5096136;28;20516;-66
2024/01/26 01:05:06;;;;;;;19.50;8.47;;;;;;;;;;5099440;28;20485;-66
2024/01/26 01:07:33;;;;;;;19.23;8.10;;;;;;;;;;5093861;28;20469;-66
2024/01/26 01:10:00;;;;;;;20.20;8.83;;;;;;;;;;5097231;28;20498;-66
2024/01/26 01:12:26;;;;;;;20.13;8.60;;;;;;;;;;5091692;28;20642;-65
2024/01/26 01:14:54;;;;;;;23.17;9.87;;;;;;;;;;5094690;28;20883;-65
2024/01/26 01:17:20;;;;;;;22.40;10.27;;;;;;;;;;5094806;28;20459;-65
2024/01/26 01:19:47;;;;;;;18.80;9.63;;;;;;;;;;5091080;28;20459;-65
2024/01/26 01:22:13;;;;;;;14.60;9.33;;;;;;;;;;5094423;28;20455;-65
2024/01/26 01:24:40;;;;;;;20.50;10.47;;;;;;;;;;5084890;28;20467;-65
2024/01/26 01:27:06;;;;;;;21.67;10.10;;;;;;;;;;5090732;28;20455;-65
2024/01/26 01:29:32;;;;;;;18.03;10.33;;;;;;;;;;5092810;28;20909;-65
2024/01/26 01:32:01;;;;;;;18.93;12.27;;;;;;;;;;5090070;28;20528;-65
2024/01/26 01:34:27;;;;;;;19.80;10.20;;;;;;;;;;5096708;28;20478;-65
2024/01/26 01:36:53;;;;;;;23.10;11.40;;;;;;;;;;5097611;28;20517;-65
2024/01/26 01:39:19;;;;;;;24.00;13.07;;;;;;;;;;5097012;28;20444;-66
2024/01/26 01:41:47;;;;;;;21.23;12.53;;;;;;;;;;5093916;28;20459;-66
2024/01/26 01:44:13;;;;;;;22.60;12.13;;;;;;;;;;5095825;28;20259;-65
2024/01/26 01:46:39;;;;;;;20.37;11.70;;;;;;;;;;5096388;28;20971;-65
2024/01/26 01:49:08;;;;;;;23.83;12.03;;;;;;;;;;5096140;28;20473;-65
2024/01/26 01:51:35;;;;;;;30.00;11.93;;;;;;;;;;5094385;28;20456;-65
2024/01/26 01:54:02;;;;;;;19.50;12.20;;;;;;;;;;5096698;28;20458;-65
2024/01/26 01:56:29;;;;;;;21.90;13.33;;;;;;;;;;5089281;28;20527;-66
2024/01/26 01:58:56;;;;;;;22.83;11.27;;;;;;;;;;5093333;28;20462;-66
2024/01/26 02:01:22;;;;;;;14.47;10.43;;;;;;;;;;5089057;28;20514;-66
2024/01/26 02:03:49;;;;;;;19.73;11.00;;;;;;;;;;5091777;28;21031;-65
2024/01/26 02:06:16;;;;;;;21.13;12.27;;;;;;;;;;5098325;28;20450;-66
2024/01/26 02:08:43;;;;;;;17.83;11.80;;;;;;;;;;5097073;28;20552;-65
2024/01/26 02:11:10;;;;;;;18.70;13.17;;;;;;;;;;5096877;28;21029;-65
2024/01/26 02:13:36;;;;;;;18.80;12.07;;;;;;;;;;5099666;28;20479;-65
2024/01/26 02:16:03;;;;;;;15.87;11.07;;;;;;;;;;5088228;28;20582;-65
2024/01/26 02:18:29;;;;;;;21.77;13.30;;;;;;;;;;5094131;28;20454;-65
2024/01/26 02:20:55;;;;;;;23.23;11.60;;;;;;;;;;5094010;28;20471;-65
2024/01/26 02:23:24;;;;;;;19.90;12.50;;;;;;;;;;5098441;28;20450;-66
2024/01/26 02:25:50;;;;;;;17.73;12.00;;;;;;;;;;5095780;28;20523;-65
2024/01/26 02:28:16;;;;;;;20.73;12.90;;;;;;;;;;5091152;28;20533;-66
2024/01/26 02:30:43;;;;;;;22.17;12.10;;;;;;;;;;5095828;28;20479;-65
2024/01/26 02:33:09;;;;;;;24.00;12.33;;;;;;;;;;5091648;28;20460;-65
2024/01/26 02:35:36;;;;;;;16.60;11.03;;;;;;;;;;5090574;28;20487;-65
2024/01/26 02:38:02;;;;;;;24.47;13.80;;;;;;;;;;5092228;28;20493;-66
2024/01/26 02:40:30;;;;;;;22.17;13.40;;;;;;;;;;5095522;28;20514;-66
2024/01/26 02:42:56;;;;;;;21.13;13.97;;;;;;;;;;5092099;28;20459;-65
2024/01/26 02:45:24;;;;;;;23.63;15.67;;;;;;;;;;5093549;28;20475;-66
2024/01/26 02:47:50;;;;;;;23.77;14.63;;;;;;;;;;5094978;28;20485;-65
2024/01/26 02:50:17;;;;;;;25.77;14.67;;;;;;;;;;5090444;28;20469;-65
2024/01/26 02:52:43;;;;;;;28.87;16.40;;;;;;;;;;5089765;28;20492;-66
2024/01/26 02:55:09;;;;;;;26.53;16.47;;;;;;;;;;5097732;28;20508;-65
2024/01/26 02:57:37;;;;;;;29.67;16.70;;;;;;;;;;5098075;28;20488;-66
2024/01/26 03:00:05;;;;;;;28.03;17.13;;;;;;;;;;5100926;28;20497;-65
2024/01/26 03:02:31;;;;;;;29.73;17.50;;;;;;;;;;5090842;28;20452;-66
2024/01/26 03:04:57;;;;;;;29.93;17.83;;;;;;;;;;5093473;28;20486;-66
2024/01/26 03:07:24;;;;;;;28.50;16.77;;;;;;;;;;5097744;28;20487;-65
2024/01/26 03:09:50;;;;;;;28.47;17.63;;;;;;;;;;5096896;28;20463;-64
2024/01/26 03:12:17;;;;;;;34.80;17.47;;;;;;;;;;5097030;28;20463;-65
2024/01/26 03:14:44;;;;;;;32.67;17.23;;;;;;;;;;5092250;28;20482;-65
2024/01/26 03:17:11;;;;;;;30.83;17.20;;;;;;;;;;5093028;28;20500;-64
2024/01/26 03:19:37;;;;;;;33.57;18.20;;;;;;;;;;5094816;28;20474;-65
2024/01/26 03:22:04;;;;;;;28.83;17.87;;;;;;;;;;5094340;28;20488;-65
2024/01/26 03:24:30;;;;;;;30.80;18.30;;;;;;;;;;5095534;28;20446;-65
2024/01/26 03:26:56;;;;;;;33.13;17.60;;;;;;;;;;5092257;28;20605;-64
2024/01/26 03:29:23;;;;;;;34.73;20.10;;;;;;;;;;5097830;28;20455;-64
2024/01/26 03:31:51;;;;;;;36.73;18.40;;;;;;;;;;5094079;28;20526;-64
2024/01/26 03:34:17;;;;;;;36.23;18.17;;;;;;;;;;5099801;28;20947;-64
2024/01/26 03:36:43;;;;;;;35.37;19.77;;;;;;;;;;5094919;28;20534;-64
2024/01/26 03:39:10;;;;;;;35.50;19.80;;;;;;;;;;5095967;28;20483;-64
2024/01/26 03:41:39;;;;;;;33.97;20.10;;;;;;;;;;5092114;28;20517;-64
2024/01/26 03:44:06;;;;;;;37.40;18.63;;;;;;;;;;5097587;28;20482;-65
2024/01/26 03:46:33;;;;;;;40.20;19.37;;;;;;;;;;5094727;28;20455;-65
2024/01/26 03:49:03;;;;;;;34.23;18.90;;;;;;;;;;5096505;28;20468;-65
2024/01/26 03:51:28;;;;;;;30.50;17.50;;;;;;;;;;5091585;28;20455;-65
2024/01/26 03:53:55;;;;;;;32.70;18.67;;;;;;;;;;5090042;28;20458;-65
2024/01/26 03:56:21;;;;;;;30.67;18.20;;;;;;;;;;5097410;28;20538;-64
2024/01/26 03:58:48;;;;;;;31.93;19.37;;;;;;;;;;5096884;28;20465;-65
2024/01/26 04:01:15;;;;;;;35.00;18.67;;;;;;;;;;5099284;28;20451;-64
2024/01/26 04:03:41;;;;;;;33.27;20.00;;;;;;;;;;5097500;28;20455;-64
2024/01/26 04:06:09;;;;;;;33.70;19.37;;;;;;;;;;5099428;28;20480;-64
2024/01/26 04:08:35;;;;;;;32.47;19.60;;;;;;;;;;5091474;28;20474;-64
2024/01/26 04:11:02;;;;;;;31.40;18.63;;;;;;;;;;5090928;28;20960;-64
2024/01/26 04:13:28;;;;;;;31.60;17.70;;;;;;;;;;5097194;28;20455;-64
2024/01/26 04:15:55;;;;;;;32.70;19.80;;;;;;;;;;5093802;28;20513;-64
2024/01/26 04:18:21;;;;;;;30.70;18.70;;;;;;;;;;5091681;28;20462;-64
2024/01/26 04:20:48;;;;;;;33.30;18.80;;;;;;;;;;5093299;28;20446;-64
2024/01/26 04:23:16;;;;;;;28.57;17.00;;;;;;;;;;5095165;28;20554;-64
2024/01/26 04:25:43;;;;;;;31.87;17.57;;;;;;;;;;5099749;28;20454;-64
2024/01/26 04:28:09;;;;;;;31.23;17.40;;;;;;;;;;5085275;28;20460;-64
2024/01/26 04:30:35;;;;;;;27.93;16.43;;;;;;;;;;5085120;28;20459;-65
2024/01/26 04:33:02;;;;;;;30.37;19.03;;;;;;;;;;5099095;28;20485;-65
2024/01/26 04:35:28;;;;;;;31.50;18.87;;;;;;;;;;5097092;28;20463;-65
2024/01/26 04:37:55;;;;;;;27.73;17.97;;;;;;;;;;5094455;28;20490;-65
2024/01/26 04:40:23;;;;;;;34.87;20.47;;;;;;;;;;5089531;28;20521;-65
2024/01/26 04:42:51;;;;;;;36.00;19.53;;;;;;;;;;5093258;28;20538;-65
2024/01/26 04:45:17;;;;;;;33.77;20.20;;;;;;;;;;5090422;28;20445;-64
2024/01/26 04:47:44;;;;;;;35.30;21.70;;;;;;;;;;5093319;28;20487;-64
2024/01/26 04:50:10;;;;;;;31.60;19.40;;;;;;;;;;5088091;28;20543;-64
2024/01/26 04:52:37;;;;;;;38.87;21.93;;;;;;;;;;5096086;28;20455;-64
2024/01/26 04:55:04;;;;;;;36.53;21.93;;;;;;;;;;5093039;28;20478;-65
2024/01/26 04:57:32;;;;;;;38.47;21.40;;;;;;;;;;5090256;28;20497;-65
2024/01/26 05:00:00;;;;;;;37.97;22.43;;;;;;;;;;5088448;28;20472;-65
2024/01/26 05:02:27;;;;;;;35.80;22.70;;;;;;;;;;5092957;28;20585;-64
2024/01/26 05:04:53;;;;;;;39.83;22.93;;;;;;;;;;5091256;28;21326;-65
2024/01/26 05:07:20;;;;;;;44.83;25.40;;;;;;;;;;5090360;28;20475;-64
2024/01/26 05:09:46;;;;;;;39.20;22.47;;;;;;;;;;5093402;28;20462;-65
2024/01/26 05:12:12;;;;;;;43.00;24.63;;;;;;;;;;5097508;28;20518;-65
2024/01/26 05:14:40;;;;;;;39.40;23.07;;;;;;;;;;5103751;28;20444;-64
2024/01/26 05:17:07;;;;;;;37.90;21.90;;;;;;;;;;5086264;28;20573;-64
2024/01/26 05:19:33;;;;;;;40.43;23.37;;;;;;;;;;5090851;28;20475;-64
2024/01/26 05:21:59;;;;;;;38.97;21.33;;;;;;;;;;5086376;28;20827;-64
2024/01/26 05:24:26;;;;;;;34.80;21.43;;;;;;;;;;5102223;28;20439;-64
2024/01/26 05:26:53;;;;;;;37.73;21.60;;;;;;;;;;5089731;28;20525;-64
2024/01/26 05:29:20;;;;;;;43.20;23.33;;;;;;;;;;5090652;28;20451;-64
2024/01/26 05:34:23;;;;;;;34.37;21.10;;;;;;;;;;5209890;22;20504;-73
2024/01/26 05:36:49;;;;;;;30.87;20.43;;;;;;;;;;5058520;28;20523;-74
2024/01/26 05:39:16;;;;;;;31.57;20.23;;;;;;;;;;5060339;28;20456;-73
2024/01/26 05:41:42;;;;;;;33.10;19.80;;;;;;;;;;5059912;28;20500;-73
2024/01/26 05:44:08;;;;;;;34.60;19.97;;;;;;;;;;5058906;28;20453;-74
2024/01/26 05:46:35;;;;;;;33.30;20.43;;;;;;;;;;5059689;28;20457;-74
2024/01/26 05:49:01;;;;;;;29.83;20.23;;;;;;;;;;5059034;28;20495;-74
2024/01/26 05:51:29;;;;;;;35.90;18.73;;;;;;;;;;5059352;28;20520;-74
2024/01/26 05:53:55;;;;;;;29.13;18.70;;;;;;;;;;5058262;28;20484;-74
2024/01/26 05:56:22;;;;;;;27.30;16.87;;;;;;;;;;5058107;28;20634;-73
2024/01/26 05:58:49;;;;;;;31.13;17.80;;;;;;;;;;5057776;28;20533;-74
2024/01/26 06:01:15;;;;;;;29.00;17.30;;;;;;;;;;5059070;28;20488;-73
2024/01/26 06:03:42;;;;;;;27.50;16.87;;;;;;;;;;5059381;28;20460;-73
2024/01/26 06:06:08;;;;;;;33.70;17.43;;;;;;;;;;5058705;28;21327;-72
2024/01/26 06:08:36;;;;;;;27.80;18.03;;;;;;;;;;5057803;28;20460;-73
2024/01/26 06:11:03;;;;;;;25.63;16.50;;;;;;;;;;5054751;28;20448;-72
2024/01/26 06:13:29;;;;;;;29.23;16.70;;;;;;;;;;5059761;28;20495;-73
2024/01/26 06:18:30;;;;;;;31.33;17.30;;;;;;;;;;5469386;22;20931;-75
2024/01/26 06:20:57;;;;;;;31.90;17.17;;;;;;;;;;5088538;28;20479;-80
2024/01/26 06:23:23;;;;;;;28.00;16.50;;;;;;;;;;5069657;28;20487;-74
2024/01/26 06:25:51;;;;;;;27.40;16.87;;;;;;;;;;5073540;28;20463;-74
2024/01/26 06:28:18;;;;;;;26.70;17.20;;;;;;;;;;5076541;28;20520;-73
2024/01/26 06:30:44;;;;;;;20.70;13.13;;;;;;;;;;5084164;28;20490;-80
2024/01/26 06:33:11;;;;;;;24.33;15.53;;;;;;;;;;5075976;28;20491;-75
2024/01/26 06:35:37;;;;;;;26.13;16.70;;;;;;;;;;5096641;28;20837;-75
2024/01/26 06:38:04;;;;;;;25.37;14.80;;;;;;;;;;5087972;28;20486;-79
2024/01/26 06:40:30;;;;;;;22.67;15.33;;;;;;;;;;5084649;28;20471;-79
2024/01/26 06:43:01;;;;;;;22.63;13.93;;;;;;;;;;5086591;28;20512;-75
2024/01/26 06:45:28;;;;;;;23.67;14.40;;;;;;;;;;5077218;28;20459;-75
2024/01/26 06:47:54;;;;;;;22.00;14.80;;;;;;;;;;5082167;28;20487;-74
2024/01/26 06:50:21;;;;;;;19.10;13.10;;;;;;;;;;5077343;28;20488;-75
2024/01/26 06:52:47;;;;;;;21.77;13.90;;;;;;;;;;5085445;28;20443;-75
2024/01/26 06:55:13;;;;;;;21.77;14.20;;;;;;;;;;5085166;28;20873;-74
2024/01/26 06:57:40;;;;;;;16.27;11.50;;;;;;;;;;5089725;28;20543;-81
2024/01/26 07:00:09;;;;;;;18.97;12.27;;;;;;;;;;5089482;28;20456;-80
2024/01/26 07:02:36;;;;;;;18.80;12.57;;;;;;;;;;5094529;28;21124;-79
2024/01/26 07:05:03;;;;;;;19.93;13.20;;;;;;;;;;5092611;28;20943;-80
2024/01/26 07:07:29;;;;;;;17.10;11.60;;;;;;;;;;5089258;28;20520;-81
2024/01/26 07:09:56;;;;;;;15.90;12.30;;;;;;;;;;5091693;28;20448;-81
2024/01/26 07:12:22;;;;;;;21.67;12.53;;;;;;;;;;5083782;28;20519;-79
2024/01/26 07:14:49;;;;;;;20.93;11.90;;;;;;;;;;5086135;28;20474;-75
2024/01/26 07:17:17;;;;;;;16.30;11.43;;;;;;;;;;5084376;28;20492;-74
2024/01/26 07:19:43;;;;;;;20.43;13.77;;;;;;;;;;5075598;28;20895;-82
2024/01/26 07:22:09;;;;;;;17.40;12.03;;;;;;;;;;5093452;28;20471;-76
2024/01/26 07:24:36;;;;;;;18.43;12.40;;;;;;;;;;5082257;28;20546;-76
2024/01/26 07:27:03;;;;;;;20.43;14.00;;;;;;;;;;5080654;28;20464;-77
2024/01/26 07:29:29;;;;;;;17.90;11.00;;;;;;;;;;5077010;28;20482;-85
2024/01/26 07:31:56;;;;;;;19.67;12.37;;;;;;;;;;5075316;28;20516;-85
2024/01/26 07:34:24;;;;;;;14.30;10.70;;;;;;;;;;5078759;28;20517;-89
2024/01/26 07:36:50;;;;;;;16.27;11.43;;;;;;;;;;5079022;28;20483;-87
2024/01/26 07:39:21;;;;;;;15.27;11.97;;;;;;;;;;5084302;28;20452;-88
2024/01/26 07:41:48;;;;;;;15.83;11.80;;;;;;;;;;5093263;28;20491;-77
2024/01/26 07:44:14;;;;;;;16.80;12.03;;;;;;;;;;5083138;28;20483;-78
2024/01/26 07:46:41;;;;;;;15.57;11.77;;;;;;;;;;5081737;28;20458;-76
2024/01/26 07:49:07;;;;;;;17.87;12.83;;;;;;;;;;5083987;28;20472;-77
2024/01/26 07:51:35;;;;;;;16.70;11.77;;;;;;;;;;5078582;28;20449;-76
2024/01/26 07:54:01;;;;;;;18.03;11.93;;;;;;;;;;5080239;28;20535;-76
2024/01/26 07:56:28;;;;;;;15.43;11.87;;;;;;;;;;5081510;28;20455;-77
2024/01/26 07:58:54;;;;;;;18.63;12.90;;;;;;;;;;5086787;28;20518;-76
2024/01/26 08:01:21;;;;;;;15.47;11.90;;;;;;;;;;5088961;28;20473;-75
2024/01/26 08:03:47;;;;;;;17.90;13.30;;;;;;;;;;5082798;28;20462;-77
2024/01/26 08:06:13;;;;;;;19.30;12.50;;;;;;;;;;5078108;28;20444;-77
2024/01/26 08:08:41;;;;;;;15.50;11.70;;;;;;;;;;5075601;28;20441;-75
2024/01/26 08:11:09;;;;;;;18.30;11.57;;;;;;;;;;5074540;28;20467;-75
2024/01/26 08:13:35;;;;;;;16.77;11.33;;;;;;;;;;5074144;28;20880;-74
2024/01/26 08:16:01;;;;;;;15.30;10.57;;;;;;;;;;5078849;28;20487;-74
2024/01/26 08:18:28;;;;;;;14.37;9.97;;;;;;;;;;5074054;28;20505;-75
2024/01/26 08:20:54;;;;;;;15.23;10.20;;;;;;;;;;5079772;28;20486;-76
2024/01/26 08:23:21;;;;;;;16.00;11.07;;;;;;;;;;5077860;28;20863;-75
2024/01/26 08:25:49;;;;;;;12.93;10.37;;;;;;;;;;5076767;28;20445;-76
2024/01/26 08:28:15;;;;;;;14.40;10.20;;;;;;;;;;5074956;28;20463;-76
2024/01/26 08:30:42;;;;;;;14.90;10.83;;;;;;;;;;5072613;28;20464;-77
2024/01/26 08:33:09;;;;;;;13.73;8.83;;;;;;;;;;5078562;28;20459;-76
2024/01/26 08:35:35;;;;;;;16.60;10.37;;;;;;;;;;5081531;28;20449;-76
2024/01/26 08:38:01;;;;;;;16.80;9.80;;;;;;;;;;5072548;28;21029;-74
2024/01/26 08:40:28;;;;;;;11.27;8.53;;;;;;;;;;5079577;28;20440;-74
2024/01/26 08:42:56;;;;;;;10.90;8.07;;;;;;;;;;5078448;28;20448;-75
2024/01/26 08:45:23;;;;;;;13.40;8.97;;;;;;;;;;5080459;28;20566;-75
2024/01/26 08:47:50;;;;;;;14.60;9.43;;;;;;;;;;5073562;28;20667;-75
2024/01/26 08:50:16;;;;;;;14.47;8.60;;;;;;;;;;5080521;28;20432;-76
2024/01/26 08:52:42;;;;;;;13.50;9.10;;;;;;;;;;5073288;28;21132;-76
2024/01/26 08:55:09;;;;;;;11.40;8.27;;;;;;;;;;5076238;28;20551;-77
2024/01/26 08:57:35;;;;;;;12.27;8.63;;;;;;;;;;5073385;28;20480;-77
2024/01/26 09:00:08;;;;;;;16.50;8.70;;;;;;;;;;5080388;28;20433;-76
2024/01/26 09:02:35;;;;;;;10.13;7.03;;;;;;;;;;5073658;28;20459;-75
2024/01/26 09:05:01;;;;;;;10.20;8.03;;;;;;;;;;5076902;28;20479;-76
2024/01/26 09:07:28;;;;;;;11.13;7.97;;;;;;;;;;5074539;28;20565;-76
2024/01/26 09:09:54;;;;;;;13.30;8.20;;;;;;;;;;5071802;28;20480;-75
2024/01/26 09:12:20;;;;;;;11.23;8.27;;;;;;;;;;5076046;28;20490;-75
2024/01/26 09:14:47;;;;;;;11.97;8.10;;;;;;;;;;5078561;28;20909;-76
2024/01/26 09:17:15;;;;;;;13.50;8.33;;;;;;;;;;5074670;28;21028;-76
2024/01/26 09:19:41;;;;;;;9.93;6.90;;;;;;;;;;5077112;28;20491;-76
2024/01/26 09:22:08;;;;;;;14.50;7.63;;;;;;;;;;5077984;28;20483;-75
2024/01/26 09:24:34;;;;;;;10.23;7.40;;;;;;;;;;5073424;28;20451;-75
2024/01/26 09:27:02;;;;;;;8.40;6.90;;;;;;;;;;5074386;28;20484;-75
2024/01/26 09:29:28;;;;;;;9.07;7.00;;;;;;;;;;5076383;28;20475;-75
2024/01/26 09:31:56;;;;;;;10.23;7.33;;;;;;;;;;5073585;28;20452;-76
2024/01/26 09:34:24;;;;;;;9.43;7.10;;;;;;;;;;5066109;28;20464;-76
2024/01/26 09:36:50;;;;;;;8.57;6.70;;;;;;;;;;5066173;28;20452;-76
2024/01/26 09:39:17;;;;;;;6.43;5.77;;;;;;;;;;5074207;28;20529;-76
2024/01/26 09:41:43;;;;;;;6.10;5.50;;;;;;;;;;5076038;28;20465;-75
2024/01/26 09:44:10;;;;;;;6.60;4.83;;;;;;;;;;5076794;28;20455;-76
2024/01/26 09:46:36;;;;;;;8.37;5.47;;;;;;;;;;5076863;28;20455;-76
2024/01/26 09:49:03;;;;;;;5.27;3.83;;;;;;;;;;5067036;28;20761;-76
2024/01/26 09:51:31;;;;;;;3.97;3.57;;;;;;;;;;5072194;28;20453;-76
2024/01/26 09:53:59;;;;;;;4.13;3.20;;;;;;;;;;5066321;28;20455;-76
2024/01/26 09:56:26;;;;;;;3.60;3.17;;;;;;;;;;5080649;28;20956;-75
2024/01/26 09:58:53;;;;;;;3.30;3.00;;;;;;;;;;5067934;28;20483;-76
2024/01/26 10:01:21;;;;;;;3.17;2.87;;;;;;;;;;5073723;28;21065;-77
2024/01/26 10:03:48;;;;;;;3.57;3.27;;;;;;;;;;5077247;28;20452;-77
2024/01/26 10:06:14;;;;;;;4.40;3.23;;;;;;;;;;5070289;28;20489;-76
2024/01/26 10:08:42;;;;;;;4.43;3.40;;;;;;;;;;5067303;28;20526;-75
2024/01/26 10:11:09;;;;;;;4.50;3.47;;;;;;;;;;5081330;28;20471;-75
2024/01/26 10:13:35;;;;;;;5.20;4.50;;;;;;;;;;5076605;28;20912;-75
2024/01/26 10:16:05;;;;;;;4.30;3.90;;;;;;;;;;5072424;28;20448;-74
2024/01/26 10:18:38;;;;;;;4.93;4.50;;;;;;;;;;5073265;28;20600;-76
2024/01/26 10:21:05;;;;;;;4.60;4.20;;;;;;;;;;5071561;28;21352;-76
2024/01/26 10:23:31;;;;;;;6.00;4.77;;;;;;;;;;5075698;28;20466;-76
2024/01/26 10:25:59;;;;;;;7.27;6.17;;;;;;;;;;5074962;28;20441;-75
2024/01/26 10:28:25;;;;;;;7.07;6.40;;;;;;;;;;5080435;28;20452;-75
2024/01/26 10:30:52;;;;;;;7.10;6.40;;;;;;;;;;5076636;28;20480;-76
2024/01/26 10:33:19;;;;;;;9.07;7.07;;;;;;;;;;5079448;28;20490;-76
2024/01/26 10:35:46;;;;;;;8.47;7.70;;;;;;;;;;5083947;28;20491;-75
2024/01/26 10:38:14;;;;;;;7.60;6.93;;;;;;;;;;5075720;28;20510;-75
2024/01/26 10:40:43;;;;;;;8.70;7.90;;;;;;;;;;5075700;28;20470;-75
2024/01/26 10:43:11;;;;;;;9.07;8.20;;;;;;;;;;5077782;28;20456;-76
2024/01/26 10:45:38;;;;;;;9.67;8.73;;;;;;;;;;5077847;28;20488;-75
2024/01/26 10:48:06;;;;;;;9.47;8.57;;;;;;;;;;5083469;28;20458;-76
2024/01/26 10:50:32;;;;;;;12.53;9.23;;;;;;;;;;5078957;28;20928;-76
2024/01/26 10:52:58;;;;;;;10.03;9.03;;;;;;;;;;5086226;28;20459;-76
2024/01/26 10:55:25;;;;;;;10.10;8.90;;;;;;;;;;5082579;28;20455;-81
2024/01/26 10:57:52;;;;;;;9.00;8.20;;;;;;;;;;5080505;28;20716;-82
2024/01/26 11:00:20;;;;;;;9.53;8.63;;;;;;;;;;5073864;28;20487;-78
2024/01/26 11:02:47;;;;;;;9.63;8.73;;;;;;;;;;5086585;28;20492;-76
2024/01/26 11:05:13;;;;;;;9.20;8.30;;;;;;;;;;5072952;28;20506;-77
2024/01/26 11:07:39;;;;;;;9.30;8.20;;;;;;;;;;5073993;28;20528;-77
2024/01/26 11:10:07;;;;;;;10.73;8.23;;;;;;;;;;5078761;28;20998;-77
2024/01/26 11:12:34;;;;;;;8.67;7.83;;;;;;;;;;5074936;28;20449;-75
2024/01/26 11:15:08;;;;;;;8.97;8.07;;;;;;;;;;5075029;28;20444;-75
2024/01/26 11:17:43;;;;;;;8.30;6.97;;;;;;;;;;5084489;28;20539;-75
2024/01/26 11:20:12;;;;;;;10.97;8.50;;;;;;;;;;5090804;28;20449;-75
2024/01/26 11:22:39;;;;;;;9.30;8.40;;;;;;;;;;5084242;28;20451;-75
2024/01/26 11:25:05;;;;;;;8.97;8.17;;;;;;;;;;5084548;28;20543;-75
2024/01/26 11:27:32;;;;;;;10.63;9.60;;;;;;;;;;5072659;28;20527;-75
2024/01/26 11:30:00;;;;;;;9.23;8.33;;;;;;;;;;5082081;28;20442;-75
2024/01/26 11:32:27;;;;;;;7.80;7.00;;;;;;;;;;5081798;28;20597;-75
2024/01/26 11:35:03;;;;;;;7.63;7.00;;;;;;;;;;5084176;28;20459;-75
2024/01/26 11:37:30;;;;;;;8.23;7.33;;;;;;;;;;5081453;28;20460;-74
2024/01/26 11:39:56;;;;;;;6.43;5.83;;;;;;;;;;5074791;28;20492;-75
2024/01/26 11:42:23;;;;;;;3.60;3.30;;;;;;;;;;5078131;28;20499;-74
2024/01/26 11:44:59;;;;;;;3.77;2.47;;;;;;;;;;5070445;28;20537;-75
2024/01/26 11:47:27;;;;;;;1.70;1.60;;;;;;;;;;5079013;28;20490;-75
2024/01/26 11:49:54;;;;;;;2.53;2.40;;;;;;;;;;5071465;28;20491;-75
2024/01/26 11:52:22;;;;;;;2.33;1.70;;;;;;;;;;5088751;28;20833;-75
2024/01/26 11:54:49;;;;;;;3.00;1.73;;;;;;;;;;5079124;28;20513;-77
2024/01/26 11:57:17;;;;;;;1.70;1.60;;;;;;;;;;5079438;28;20463;-80
2024/01/26 11:59:43;;;;;;;2.47;1.50;;;;;;;;;;5078870;28;20483;-79
2024/01/26 12:02:10;;;;;;;1.50;1.40;;;;;;;;;;5082771;28;20471;-82
2024/01/26 12:04:36;;;;;;;2.03;1.93;;;;;;;;;;5075576;28;20483;-82
2024/01/26 12:07:03;;;;;;;1.80;1.70;;;;;;;;;;5083367;28;20498;-79
2024/01/26 12:09:30;;;;;;;1.67;1.57;;;;;;;;;;5078014;28;20447;-79
2024/01/26 12:11:57;;;;;;;2.23;2.13;;;;;;;;;;5078067;28;20512;-80
2024/01/26 12:14:25;;;;;;;2.60;2.40;;;;;;;;;;5084828;28;20452;-80
2024/01/26 12:16:51;;;;;;;3.70;2.57;;;;;;;;;;5093262;28;20881;-80
2024/01/26 12:19:18;;;;;;;2.73;2.23;;;;;;;;;;5090196;28;20519;-81
2024/01/26 12:21:47;;;;;;;2.97;2.77;;;;;;;;;;5071196;28;20450;-80
2024/01/26 12:24:14;;;;;;;2.73;2.53;;;;;;;;;;5076886;28;20532;-79
2024/01/26 12:26:42;;;;;;;2.87;2.77;;;;;;;;;;5082153;28;20448;-81
2024/01/26 12:29:08;;;;;;;3.37;3.13;;;;;;;;;;5087850;28;20460;-79
2024/01/26 12:31:34;;;;;;;3.87;3.50;;;;;;;;;;5084711;28;20463;-79
2024/01/26 12:34:02;;;;;;;3.13;2.93;;;;;;;;;;5083049;28;20463;-81
2024/01/26 12:36:31;;;;;;;3.13;2.93;;;;;;;;;;5080294;28;20869;-80
2024/01/26 12:38:57;;;;;;;3.73;3.30;;;;;;;;;;5082157;28;20480;-83
2024/01/26 12:41:24;;;;;;;4.67;3.63;;;;;;;;;;5081795;28;20881;-80
2024/01/26 12:43:52;;;;;;;3.83;2.90;;;;;;;;;;5076952;28;20451;-81
2024/01/26 12:46:19;;;;;;;3.37;3.07;;;;;;;;;;5080095;28;20491;-80
2024/01/26 12:48:45;;;;;;;4.60;3.53;;;;;;;;;;5075272;28;20456;-82
2024/01/26 12:51:12;;;;;;;2.57;2.37;;;;;;;;;;5073987;28;20496;-77
2024/01/26 12:53:38;;;;;;;4.00;2.40;;;;;;;;;;5074456;28;20455;-79
2024/01/26 12:56:05;;;;;;;4.90;2.90;;;;;;;;;;5074216;28;20483;-81
2024/01/26 12:58:32;;;;;;;5.80;2.70;;;;;;;;;;5075204;28;20476;-80
2024/01/26 13:01:00;;;;;;;5.50;2.70;;;;;;;;;;5068472;28;20493;-81
2024/01/26 13:03:26;;;;;;;6.10;3.07;;;;;;;;;;5071963;28;20525;-81
2024/01/26 13:05:53;;;;;;;4.63;3.57;;;;;;;;;;5077241;28;20447;-82
2024/01/26 13:08:20;;;;;;;9.20;4.10;;;;;;;;;;5077266;28;20461;-80
2024/01/26 13:10:47;;;;;;;5.87;3.63;;;;;;;;;;5094599;28;20488;-81
2024/01/26 13:13:14;;;;;;;9.43;4.03;;;;;;;;;;5082097;28;20455;-78
2024/01/26 13:15:41;;;;;;;7.30;3.60;;;;;;;;;;5087186;28;20471;-79
2024/01/26 13:18:08;;;;;;;5.10;3.90;;;;;;;;;;5076915;28;20546;-80
2024/01/26 13:20:35;;;;;;;6.67;4.00;;;;;;;;;;5079634;28;20519;-80
2024/01/26 13:23:01;;;;;;;6.30;4.80;;;;;;;;;;5083137;28;20500;-78
2024/01/26 13:25:28;;;;;;;5.67;4.13;;;;;;;;;;5080744;28;20443;-78
2024/01/26 13:27:54;;;;;;;7.10;4.93;;;;;;;;;;5068767;28;20482;-82
2024/01/26 13:30:21;;;;;;;14.23;4.77;;;;;;;;;;5083589;28;20536;-79
2024/01/26 13:32:47;;;;;;;9.23;5.37;;;;;;;;;;5077495;28;20475;-80
2024/01/26 13:35:15;;;;;;;6.93;4.83;;;;;;;;;;5074567;28;20441;-80
2024/01/26 13:37:42;;;;;;;6.80;4.60;;;;;;;;;;5070732;28;20455;-80
2024/01/26 13:40:09;;;;;;;5.60;4.30;;;;;;;;;;5080486;28;20493;-81
2024/01/26 13:42:36;;;;;;;12.23;4.70;;;;;;;;;;5075061;28;20466;-84
2024/01/26 13:45:05;;;;;;;5.80;4.13;;;;;;;;;;5082891;28;20492;-83
2024/01/26 13:47:32;;;;;;;10.47;4.90;;;;;;;;;;5083989;28;20468;-82
2024/01/26 13:49:58;;;;;;;8.73;4.50;;;;;;;;;;5084747;28;20523;-81
2024/01/26 13:52:27;;;;;;;10.37;4.93;;;;;;;;;;5073249;28;20495;-81
2024/01/26 13:54:53;;;;;;;8.83;4.83;;;;;;;;;;5082064;28;20452;-79
2024/01/26 13:57:20;;;;;;;4.70;4.30;;;;;;;;;;5078041;28;20447;-79
2024/01/26 13:59:46;;;;;;;6.17;5.07;;;;;;;;;;5082689;28;21141;-80
2024/01/26 14:02:12;;;;;;;6.83;4.20;;;;;;;;;;5083954;28;20467;-79
2024/01/26 14:04:39;;;;;;;11.07;4.83;;;;;;;;;;5080642;28;20453;-80
2024/01/26 14:07:05;;;;;;;12.33;5.60;;;;;;;;;;5083150;28;20483;-79
2024/01/26 14:09:34;;;;;;;10.23;4.83;;;;;;;;;;5078225;28;20529;-81
2024/01/26 14:12:01;;;;;;;10.40;5.13;;;;;;;;;;5083712;28;20486;-82
2024/01/26 14:14:27;;;;;;;10.23;5.20;;;;;;;;;;5079063;28;20463;-81
2024/01/26 14:16:53;;;;;;;8.83;5.43;;;;;;;;;;5071576;28;20463;-83
2024/01/26 14:19:21;;;;;;;6.30;4.80;;;;;;;;;;5071144;28;20493;-81
2024/01/26 14:21:48;;;;;;;8.87;5.23;;;;;;;;;;5069825;28;20464;-81
2024/01/26 14:24:14;;;;;;;10.97;6.00;;;;;;;;;;5078458;28;20658;-82
2024/01/26 14:26:42;;;;;;;8.43;6.00;;;;;;;;;;5073565;28;20452;-77
2024/01/26 14:29:15;;;;;;;9.60;5.30;;;;;;;;;;5071077;28;20487;-78
2024/01/26 14:31:41;;;;;;;10.57;5.43;;;;;;;;;;5075167;28;20459;-77